sensor_id;sensor_type;location;lat;lon;timestamp;P1;durP1;ratioP1;P2;durP2;ratioP2
19883;SDS011;10104;50.732;10.174;2023-04-15T00:00:50;8.20;;;5.17;;
19883;SDS011;10104;50.732;10.174;2023-04-15T00:03:12;7.77;;;5.63;;
19883;SDS011;10104;50.732;10.174;2023-04-15T00:05:34;11.10;;;5.90;;
19883;SDS011;10104;50.732;10.174;2023-04-15T00:07:56;9.07;;;5.97;;
19883;SDS011;10104;50.732;10.174;2023-04-15T00:10:19;8.23;;;6.13;;
19883;SDS011;10104;50.732;10.174;2023-04-15T00:12:40;5.63;;;5.07;;
19883;SDS011;10104;50.732;10.174;2023-04-15T00:15:02;6.97;;;5.40;;
19883;SDS011;10104;50.732;10.174;2023-04-15T00:17:24;6.40;;;5.30;;
19883;SDS011;10104;50.732;10.174;2023-04-15T00:19:46;6.87;;;5.53;;
19883;SDS011;10104;50.732;10.174;2023-04-15T00:22:07;8.97;;;5.80;;
19883;SDS011;10104;50.732;10.174;2023-04-15T00:24:29;7.87;;;6.07;;
19883;SDS011;10104;50.732;10.174;2023-04-15T00:26:51;7.83;;;5.87;;
19883;SDS011;10104;50.732;10.174;2023-04-15T00:29:13;6.40;;;5.70;;
19883;SDS011;10104;50.732;10.174;2023-04-15T00:31:35;7.80;;;6.53;;
19883;SDS011;10104;50.732;10.174;2023-04-15T00:33:57;8.63;;;6.30;;
19883;SDS011;10104;50.732;10.174;2023-04-15T00:36:18;7.93;;;5.87;;
19883;SDS011;10104;50.732;10.174;2023-04-15T00:38:40;6.80;;;5.80;;
19883;SDS011;10104;50.732;10.174;2023-04-15T00:41:02;8.97;;;6.03;;
19883;SDS011;10104;50.732;10.174;2023-04-15T00:43:24;6.73;;;5.20;;
19883;SDS011;10104;50.732;10.174;2023-04-15T00:45:46;6.87;;;5.80;;
19883;SDS011;10104;50.732;10.174;2023-04-15T00:48:08;6.83;;;5.23;;
19883;SDS011;10104;50.732;10.174;2023-04-15T00:50:32;8.67;;;6.17;;
19883;SDS011;10104;50.732;10.174;2023-04-15T00:52:53;6.43;;;5.80;;
19883;SDS011;10104;50.732;10.174;2023-04-15T00:55:15;7.07;;;6.37;;
19883;SDS011;10104;50.732;10.174;2023-04-15T00:57:36;8.60;;;6.13;;
19883;SDS011;10104;50.732;10.174;2023-04-15T01:00:00;8.17;;;6.37;;
19883;SDS011;10104;50.732;10.174;2023-04-15T01:02:22;6.57;;;5.87;;
19883;SDS011;10104;50.732;10.174;2023-04-15T01:04:44;7.97;;;6.47;;
19883;SDS011;10104;50.732;10.174;2023-04-15T01:07:05;10.33;;;6.33;;
19883;SDS011;10104;50.732;10.174;2023-04-15T01:09:27;6.70;;;5.97;;
19883;SDS011;10104;50.732;10.174;2023-04-15T01:11:48;6.60;;;5.30;;
19883;SDS011;10104;50.732;10.174;2023-04-15T01:14:10;6.30;;;5.40;;
19883;SDS011;10104;50.732;10.174;2023-04-15T01:16:32;7.83;;;5.00;;
19883;SDS011;10104;50.732;10.174;2023-04-15T01:18:53;7.80;;;5.53;;
19883;SDS011;10104;50.732;10.174;2023-04-15T01:21:15;6.50;;;5.73;;
19883;SDS011;10104;50.732;10.174;2023-04-15T01:23:38;7.47;;;5.50;;
19883;SDS011;10104;50.732;10.174;2023-04-15T01:25:59;6.60;;;5.37;;
19883;SDS011;10104;50.732;10.174;2023-04-15T01:28:21;7.90;;;5.63;;
19883;SDS011;10104;50.732;10.174;2023-04-15T01:30:43;5.80;;;5.00;;
19883;SDS011;10104;50.732;10.174;2023-04-15T01:33:04;7.17;;;5.80;;
19883;SDS011;10104;50.732;10.174;2023-04-15T01:35:26;5.90;;;5.17;;
19883;SDS011;10104;50.732;10.174;2023-04-15T01:37:48;9.63;;;5.70;;
19883;SDS011;10104;50.732;10.174;2023-04-15T01:40:10;7.43;;;5.70;;
19883;SDS011;10104;50.732;10.174;2023-04-15T01:42:31;7.77;;;5.83;;
19883;SDS011;10104;50.732;10.174;2023-04-15T01:44:53;8.73;;;6.00;;
19883;SDS011;10104;50.732;10.174;2023-04-15T01:47:14;9.73;;;5.97;;
19883;SDS011;10104;50.732;10.174;2023-04-15T01:49:36;6.47;;;5.70;;
19883;SDS011;10104;50.732;10.174;2023-04-15T01:51:57;8.87;;;5.67;;
19883;SDS011;10104;50.732;10.174;2023-04-15T01:54:19;7.10;;;5.70;;
19883;SDS011;10104;50.732;10.174;2023-04-15T01:56:40;6.37;;;5.73;;
19883;SDS011;10104;50.732;10.174;2023-04-15T01:59:02;7.00;;;5.60;;
19883;SDS011;10104;50.732;10.174;2023-04-15T02:01:24;6.87;;;5.70;;
19883;SDS011;10104;50.732;10.174;2023-04-15T02:03:46;7.40;;;5.50;;
19883;SDS011;10104;50.732;10.174;2023-04-15T02:06:08;6.57;;;5.87;;
19883;SDS011;10104;50.732;10.174;2023-04-15T02:08:29;6.33;;;5.73;;
19883;SDS011;10104;50.732;10.174;2023-04-15T02:10:51;7.10;;;5.50;;
19883;SDS011;10104;50.732;10.174;2023-04-15T02:13:12;5.90;;;5.10;;
19883;SDS011;10104;50.732;10.174;2023-04-15T02:15:35;6.30;;;5.47;;
19883;SDS011;10104;50.732;10.174;2023-04-15T02:17:56;10.47;;;6.93;;
19883;SDS011;10104;50.732;10.174;2023-04-15T02:20:19;9.37;;;6.33;;
19883;SDS011;10104;50.732;10.174;2023-04-15T02:22:41;7.00;;;5.93;;
19883;SDS011;10104;50.732;10.174;2023-04-15T02:25:03;8.10;;;6.20;;
19883;SDS011;10104;50.732;10.174;2023-04-15T02:27:25;9.53;;;7.10;;
19883;SDS011;10104;50.732;10.174;2023-04-15T02:29:46;8.20;;;6.27;;
19883;SDS011;10104;50.732;10.174;2023-04-15T02:32:08;8.50;;;5.60;;
19883;SDS011;10104;50.732;10.174;2023-04-15T02:34:29;6.80;;;5.37;;
19883;SDS011;10104;50.732;10.174;2023-04-15T02:36:51;7.40;;;6.50;;
19883;SDS011;10104;50.732;10.174;2023-04-15T02:39:17;10.80;;;6.20;;
19883;SDS011;10104;50.732;10.174;2023-04-15T02:41:38;9.07;;;6.27;;
19883;SDS011;10104;50.732;10.174;2023-04-15T02:44:00;6.90;;;6.20;;
19883;SDS011;10104;50.732;10.174;2023-04-15T02:46:22;7.73;;;6.30;;
19883;SDS011;10104;50.732;10.174;2023-04-15T02:48:43;6.70;;;5.80;;
19883;SDS011;10104;50.732;10.174;2023-04-15T02:51:14;9.07;;;5.93;;
19883;SDS011;10104;50.732;10.174;2023-04-15T02:53:40;8.90;;;6.10;;
19883;SDS011;10104;50.732;10.174;2023-04-15T02:56:01;10.70;;;5.90;;
19883;SDS011;10104;50.732;10.174;2023-04-15T02:58:23;7.63;;;5.87;;
19883;SDS011;10104;50.732;10.174;2023-04-15T03:00:45;7.93;;;6.63;;
19883;SDS011;10104;50.732;10.174;2023-04-15T03:03:06;7.40;;;5.83;;
19883;SDS011;10104;50.732;10.174;2023-04-15T03:05:28;7.97;;;6.60;;
19883;SDS011;10104;50.732;10.174;2023-04-15T03:07:50;7.87;;;6.43;;
19883;SDS011;10104;50.732;10.174;2023-04-15T03:10:12;10.73;;;6.40;;
19883;SDS011;10104;50.732;10.174;2023-04-15T03:12:34;8.20;;;6.50;;
19883;SDS011;10104;50.732;10.174;2023-04-15T03:14:55;9.57;;;6.40;;
19883;SDS011;10104;50.732;10.174;2023-04-15T03:17:17;7.33;;;6.57;;
19883;SDS011;10104;50.732;10.174;2023-04-15T03:19:38;10.07;;;6.50;;
19883;SDS011;10104;50.732;10.174;2023-04-15T03:22:00;9.50;;;6.83;;
19883;SDS011;10104;50.732;10.174;2023-04-15T03:24:21;7.00;;;6.00;;
19883;SDS011;10104;50.732;10.174;2023-04-15T03:26:43;8.20;;;6.17;;
19883;SDS011;10104;50.732;10.174;2023-04-15T03:29:04;7.50;;;6.13;;
19883;SDS011;10104;50.732;10.174;2023-04-15T03:31:26;7.17;;;5.73;;
19883;SDS011;10104;50.732;10.174;2023-04-15T03:33:48;7.07;;;6.20;;
19883;SDS011;10104;50.732;10.174;2023-04-15T03:36:10;6.70;;;6.00;;
19883;SDS011;10104;50.732;10.174;2023-04-15T03:38:32;7.37;;;6.40;;
19883;SDS011;10104;50.732;10.174;2023-04-15T03:40:53;7.33;;;5.80;;
19883;SDS011;10104;50.732;10.174;2023-04-15T03:43:14;6.70;;;5.90;;
19883;SDS011;10104;50.732;10.174;2023-04-15T03:45:36;9.53;;;6.63;;
19883;SDS011;10104;50.732;10.174;2023-04-15T03:47:58;7.23;;;6.40;;
19883;SDS011;10104;50.732;10.174;2023-04-15T03:50:37;7.20;;;5.70;;
19883;SDS011;10104;50.732;10.174;2023-04-15T03:52:58;8.60;;;6.50;;
19883;SDS011;10104;50.732;10.174;2023-04-15T03:55:20;7.63;;;6.70;;
19883;SDS011;10104;50.732;10.174;2023-04-15T03:57:41;7.50;;;6.20;;
19883;SDS011;10104;50.732;10.174;2023-04-15T04:00:06;8.90;;;6.50;;
19883;SDS011;10104;50.732;10.174;2023-04-15T04:02:29;8.17;;;6.50;;
19883;SDS011;10104;50.732;10.174;2023-04-15T04:04:51;10.43;;;7.40;;
19883;SDS011;10104;50.732;10.174;2023-04-15T04:07:16;7.87;;;6.50;;
19883;SDS011;10104;50.732;10.174;2023-04-15T04:09:38;7.90;;;6.00;;
19883;SDS011;10104;50.732;10.174;2023-04-15T04:12:01;8.90;;;6.53;;
19883;SDS011;10104;50.732;10.174;2023-04-15T04:14:24;8.17;;;6.10;;
19883;SDS011;10104;50.732;10.174;2023-04-15T04:16:49;7.60;;;6.03;;
19883;SDS011;10104;50.732;10.174;2023-04-15T04:19:11;8.37;;;6.17;;
19883;SDS011;10104;50.732;10.174;2023-04-15T04:21:34;6.70;;;5.90;;
19883;SDS011;10104;50.732;10.174;2023-04-15T04:23:56;8.80;;;6.20;;
19883;SDS011;10104;50.732;10.174;2023-04-15T04:26:19;7.40;;;6.30;;
19883;SDS011;10104;50.732;10.174;2023-04-15T04:28:40;10.87;;;6.73;;
19883;SDS011;10104;50.732;10.174;2023-04-15T04:31:02;7.67;;;6.40;;
19883;SDS011;10104;50.732;10.174;2023-04-15T04:33:23;8.67;;;7.03;;
19883;SDS011;10104;50.732;10.174;2023-04-15T04:35:45;8.27;;;6.80;;
19883;SDS011;10104;50.732;10.174;2023-04-15T04:38:07;8.23;;;7.23;;
19883;SDS011;10104;50.732;10.174;2023-04-15T04:40:28;9.53;;;7.70;;
19883;SDS011;10104;50.732;10.174;2023-04-15T04:42:50;9.83;;;7.77;;
19883;SDS011;10104;50.732;10.174;2023-04-15T04:45:11;9.57;;;7.50;;
19883;SDS011;10104;50.732;10.174;2023-04-15T04:47:33;9.33;;;7.03;;
19883;SDS011;10104;50.732;10.174;2023-04-15T04:49:55;8.93;;;7.40;;
19883;SDS011;10104;50.732;10.174;2023-04-15T04:52:16;8.47;;;6.90;;
19883;SDS011;10104;50.732;10.174;2023-04-15T04:54:37;9.60;;;7.67;;
19883;SDS011;10104;50.732;10.174;2023-04-15T04:56:59;9.47;;;7.33;;
19883;SDS011;10104;50.732;10.174;2023-04-15T04:59:21;10.67;;;8.13;;
19883;SDS011;10104;50.732;10.174;2023-04-15T05:01:42;10.60;;;8.67;;
19883;SDS011;10104;50.732;10.174;2023-04-15T05:04:04;9.57;;;7.57;;
19883;SDS011;10104;50.732;10.174;2023-04-15T05:06:27;9.47;;;8.27;;
19883;SDS011;10104;50.732;10.174;2023-04-15T05:08:50;9.53;;;7.63;;
19883;SDS011;10104;50.732;10.174;2023-04-15T05:11:12;11.00;;;8.70;;
19883;SDS011;10104;50.732;10.174;2023-04-15T05:13:33;10.50;;;8.70;;
19883;SDS011;10104;50.732;10.174;2023-04-15T05:15:58;13.00;;;8.93;;
19883;SDS011;10104;50.732;10.174;2023-04-15T05:18:20;10.57;;;8.77;;
19883;SDS011;10104;50.732;10.174;2023-04-15T05:20:41;9.77;;;7.70;;
19883;SDS011;10104;50.732;10.174;2023-04-15T05:23:03;8.60;;;7.47;;
19883;SDS011;10104;50.732;10.174;2023-04-15T05:25:24;9.20;;;7.60;;
19883;SDS011;10104;50.732;10.174;2023-04-15T05:27:46;11.40;;;8.37;;
19883;SDS011;10104;50.732;10.174;2023-04-15T05:30:07;10.83;;;8.70;;
19883;SDS011;10104;50.732;10.174;2023-04-15T05:32:31;9.33;;;8.20;;
19883;SDS011;10104;50.732;10.174;2023-04-15T05:34:53;10.93;;;8.43;;
19883;SDS011;10104;50.732;10.174;2023-04-15T05:37:14;9.93;;;8.37;;
19883;SDS011;10104;50.732;10.174;2023-04-15T05:39:36;10.00;;;8.30;;
19883;SDS011;10104;50.732;10.174;2023-04-15T05:41:57;10.63;;;8.43;;
19883;SDS011;10104;50.732;10.174;2023-04-15T05:44:20;9.53;;;8.13;;
19883;SDS011;10104;50.732;10.174;2023-04-15T05:46:41;11.53;;;8.90;;
19883;SDS011;10104;50.732;10.174;2023-04-15T05:49:03;11.40;;;9.03;;
19883;SDS011;10104;50.732;10.174;2023-04-15T05:51:25;11.20;;;8.93;;
19883;SDS011;10104;50.732;10.174;2023-04-15T05:53:46;10.73;;;8.87;;
19883;SDS011;10104;50.732;10.174;2023-04-15T05:56:08;10.37;;;8.87;;
19883;SDS011;10104;50.732;10.174;2023-04-15T05:58:29;11.10;;;8.93;;
19883;SDS011;10104;50.732;10.174;2023-04-15T06:00:51;13.47;;;8.97;;
19883;SDS011;10104;50.732;10.174;2023-04-15T06:03:13;11.87;;;9.07;;
19883;SDS011;10104;50.732;10.174;2023-04-15T06:05:34;11.37;;;9.20;;
19883;SDS011;10104;50.732;10.174;2023-04-15T06:07:56;13.23;;;9.20;;
19883;SDS011;10104;50.732;10.174;2023-04-15T06:10:17;14.00;;;8.93;;
19883;SDS011;10104;50.732;10.174;2023-04-15T06:12:39;12.73;;;9.67;;
19883;SDS011;10104;50.732;10.174;2023-04-15T06:15:01;10.87;;;9.17;;
19883;SDS011;10104;50.732;10.174;2023-04-15T06:17:22;12.50;;;9.03;;
19883;SDS011;10104;50.732;10.174;2023-04-15T06:19:44;15.53;;;9.73;;
19883;SDS011;10104;50.732;10.174;2023-04-15T06:22:08;11.93;;;9.37;;
19883;SDS011;10104;50.732;10.174;2023-04-15T06:24:30;12.10;;;9.33;;
19883;SDS011;10104;50.732;10.174;2023-04-15T06:26:53;11.53;;;10.30;;
19883;SDS011;10104;50.732;10.174;2023-04-15T06:29:14;13.90;;;10.63;;
19883;SDS011;10104;50.732;10.174;2023-04-15T06:31:36;17.20;;;11.37;;
19883;SDS011;10104;50.732;10.174;2023-04-15T06:33:57;14.93;;;11.83;;
19883;SDS011;10104;50.732;10.174;2023-04-15T06:36:19;14.30;;;10.97;;
19883;SDS011;10104;50.732;10.174;2023-04-15T06:38:41;12.93;;;10.30;;
19883;SDS011;10104;50.732;10.174;2023-04-15T06:41:03;12.40;;;10.37;;
19883;SDS011;10104;50.732;10.174;2023-04-15T06:43:24;18.07;;;11.73;;
19883;SDS011;10104;50.732;10.174;2023-04-15T06:45:46;13.30;;;10.70;;
19883;SDS011;10104;50.732;10.174;2023-04-15T06:48:07;14.40;;;11.33;;
19883;SDS011;10104;50.732;10.174;2023-04-15T06:50:29;14.30;;;11.17;;
19883;SDS011;10104;50.732;10.174;2023-04-15T06:52:51;16.03;;;11.33;;
19883;SDS011;10104;50.732;10.174;2023-04-15T06:55:14;14.90;;;11.23;;
19883;SDS011;10104;50.732;10.174;2023-04-15T06:57:35;11.97;;;9.93;;
19883;SDS011;10104;50.732;10.174;2023-04-15T06:59:57;12.00;;;10.20;;
19883;SDS011;10104;50.732;10.174;2023-04-15T07:02:18;15.23;;;11.17;;
19883;SDS011;10104;50.732;10.174;2023-04-15T07:04:40;12.63;;;10.37;;
19883;SDS011;10104;50.732;10.174;2023-04-15T07:07:02;16.80;;;11.47;;
19883;SDS011;10104;50.732;10.174;2023-04-15T07:09:23;16.50;;;12.50;;
19883;SDS011;10104;50.732;10.174;2023-04-15T07:11:45;14.13;;;11.57;;
19883;SDS011;10104;50.732;10.174;2023-04-15T07:14:07;20.33;;;13.80;;
19883;SDS011;10104;50.732;10.174;2023-04-15T07:16:28;14.33;;;11.40;;
19883;SDS011;10104;50.732;10.174;2023-04-15T07:18:50;12.60;;;10.67;;
19883;SDS011;10104;50.732;10.174;2023-04-15T07:21:12;14.47;;;10.83;;
19883;SDS011;10104;50.732;10.174;2023-04-15T07:23:34;12.17;;;10.53;;
19883;SDS011;10104;50.732;10.174;2023-04-15T07:25:55;12.33;;;10.90;;
19883;SDS011;10104;50.732;10.174;2023-04-15T07:28:17;14.30;;;11.77;;
19883;SDS011;10104;50.732;10.174;2023-04-15T07:30:39;12.17;;;10.63;;
19883;SDS011;10104;50.732;10.174;2023-04-15T07:33:00;12.40;;;10.93;;
19883;SDS011;10104;50.732;10.174;2023-04-15T07:35:22;12.30;;;10.23;;
19883;SDS011;10104;50.732;10.174;2023-04-15T07:37:44;12.50;;;10.67;;
19883;SDS011;10104;50.732;10.174;2023-04-15T07:40:06;13.10;;;10.83;;
19883;SDS011;10104;50.732;10.174;2023-04-15T07:42:29;11.60;;;10.33;;
19883;SDS011;10104;50.732;10.174;2023-04-15T07:44:50;12.47;;;10.77;;
19883;SDS011;10104;50.732;10.174;2023-04-15T07:47:12;17.33;;;11.13;;
19883;SDS011;10104;50.732;10.174;2023-04-15T07:49:33;13.37;;;11.27;;
19883;SDS011;10104;50.732;10.174;2023-04-15T07:51:55;12.40;;;10.70;;
19883;SDS011;10104;50.732;10.174;2023-04-15T07:54:17;14.40;;;11.57;;
19883;SDS011;10104;50.732;10.174;2023-04-15T07:56:39;11.83;;;10.30;;
19883;SDS011;10104;50.732;10.174;2023-04-15T07:59:00;12.40;;;10.30;;
19883;SDS011;10104;50.732;10.174;2023-04-15T08:01:24;12.93;;;10.93;;
19883;SDS011;10104;50.732;10.174;2023-04-15T08:03:46;12.67;;;10.90;;
19883;SDS011;10104;50.732;10.174;2023-04-15T08:06:08;11.80;;;10.43;;
19883;SDS011;10104;50.732;10.174;2023-04-15T08:08:30;12.87;;;10.20;;
19883;SDS011;10104;50.732;10.174;2023-04-15T08:10:52;12.70;;;10.40;;
19883;SDS011;10104;50.732;10.174;2023-04-15T08:13:13;12.27;;;9.80;;
19883;SDS011;10104;50.732;10.174;2023-04-15T08:15:35;12.40;;;10.57;;
19883;SDS011;10104;50.732;10.174;2023-04-15T08:17:57;13.37;;;11.60;;
19883;SDS011;10104;50.732;10.174;2023-04-15T08:20:20;13.97;;;10.00;;
19883;SDS011;10104;50.732;10.174;2023-04-15T08:22:42;13.07;;;10.63;;
19883;SDS011;10104;50.732;10.174;2023-04-15T08:25:04;14.70;;;11.10;;
19883;SDS011;10104;50.732;10.174;2023-04-15T08:27:25;16.73;;;14.53;;
19883;SDS011;10104;50.732;10.174;2023-04-15T08:29:47;12.03;;;10.17;;
19883;SDS011;10104;50.732;10.174;2023-04-15T08:32:09;10.70;;;9.20;;
19883;SDS011;10104;50.732;10.174;2023-04-15T08:34:30;11.60;;;9.90;;
19883;SDS011;10104;50.732;10.174;2023-04-15T08:36:52;12.97;;;9.73;;
19883;SDS011;10104;50.732;10.174;2023-04-15T08:39:13;9.20;;;8.20;;
19883;SDS011;10104;50.732;10.174;2023-04-15T08:41:39;25.17;;;17.57;;
19883;SDS011;10104;50.732;10.174;2023-04-15T08:44:09;12.67;;;9.27;;
19883;SDS011;10104;50.732;10.174;2023-04-15T08:46:31;12.07;;;10.40;;
19883;SDS011;10104;50.732;10.174;2023-04-15T08:48:57;15.20;;;11.67;;
19883;SDS011;10104;50.732;10.174;2023-04-15T08:51:19;13.03;;;10.20;;
19883;SDS011;10104;50.732;10.174;2023-04-15T08:53:42;12.50;;;9.90;;
19883;SDS011;10104;50.732;10.174;2023-04-15T08:56:04;19.90;;;14.00;;
19883;SDS011;10104;50.732;10.174;2023-04-15T08:58:30;13.37;;;11.27;;
19883;SDS011;10104;50.732;10.174;2023-04-15T09:00:52;16.97;;;12.93;;
19883;SDS011;10104;50.732;10.174;2023-04-15T09:03:14;14.13;;;10.17;;
19883;SDS011;10104;50.732;10.174;2023-04-15T09:05:37;24.63;;;14.93;;
19883;SDS011;10104;50.732;10.174;2023-04-15T09:07:59;52.00;;;26.13;;
19883;SDS011;10104;50.732;10.174;2023-04-15T09:10:21;22.13;;;15.37;;
19883;SDS011;10104;50.732;10.174;2023-04-15T09:12:43;11.30;;;9.70;;
19883;SDS011;10104;50.732;10.174;2023-04-15T09:15:05;11.80;;;9.33;;
19883;SDS011;10104;50.732;10.174;2023-04-15T09:17:27;13.23;;;9.47;;
19883;SDS011;10104;50.732;10.174;2023-04-15T09:19:48;11.87;;;9.30;;
19883;SDS011;10104;50.732;10.174;2023-04-15T09:22:30;12.63;;;10.10;;
19883;SDS011;10104;50.732;10.174;2023-04-15T09:24:52;12.03;;;10.60;;
19883;SDS011;10104;50.732;10.174;2023-04-15T09:27:16;11.30;;;9.63;;
19883;SDS011;10104;50.732;10.174;2023-04-15T09:29:37;11.73;;;10.10;;
19883;SDS011;10104;50.732;10.174;2023-04-15T09:32:08;13.40;;;10.03;;
19883;SDS011;10104;50.732;10.174;2023-04-15T09:34:34;11.00;;;8.83;;
19883;SDS011;10104;50.732;10.174;2023-04-15T09:36:57;9.57;;;8.37;;
19883;SDS011;10104;50.732;10.174;2023-04-15T09:39:18;10.90;;;8.77;;
19883;SDS011;10104;50.732;10.174;2023-04-15T09:41:40;11.77;;;9.03;;
19883;SDS011;10104;50.732;10.174;2023-04-15T09:44:02;10.47;;;9.13;;
19883;SDS011;10104;50.732;10.174;2023-04-15T09:46:40;12.10;;;9.27;;
19883;SDS011;10104;50.732;10.174;2023-04-15T09:49:07;10.77;;;8.93;;
19883;SDS011;10104;50.732;10.174;2023-04-15T09:51:33;10.17;;;8.43;;
19883;SDS011;10104;50.732;10.174;2023-04-15T09:53:55;10.23;;;8.57;;
19883;SDS011;10104;50.732;10.174;2023-04-15T09:56:17;10.73;;;9.37;;
19883;SDS011;10104;50.732;10.174;2023-04-15T09:58:42;14.27;;;12.30;;
19883;SDS011;10104;50.732;10.174;2023-04-15T10:01:04;13.53;;;9.93;;
19883;SDS011;10104;50.732;10.174;2023-04-15T10:03:28;11.07;;;8.73;;
19883;SDS011;10104;50.732;10.174;2023-04-15T10:05:56;10.27;;;8.80;;
19883;SDS011;10104;50.732;10.174;2023-04-15T10:08:21;10.63;;;7.53;;
19883;SDS011;10104;50.732;10.174;2023-04-15T10:10:45;9.17;;;8.17;;
19883;SDS011;10104;50.732;10.174;2023-04-15T10:13:08;10.83;;;9.33;;
19883;SDS011;10104;50.732;10.174;2023-04-15T10:15:30;8.73;;;6.43;;
19883;SDS011;10104;50.732;10.174;2023-04-15T10:17:54;10.43;;;8.03;;
19883;SDS011;10104;50.732;10.174;2023-04-15T10:20:16;9.00;;;7.57;;
19883;SDS011;10104;50.732;10.174;2023-04-15T10:22:39;7.73;;;6.17;;
19883;SDS011;10104;50.732;10.174;2023-04-15T10:25:02;9.00;;;7.83;;
19883;SDS011;10104;50.732;10.174;2023-04-15T10:27:26;11.90;;;10.23;;
19883;SDS011;10104;50.732;10.174;2023-04-15T10:29:48;8.30;;;6.30;;
19883;SDS011;10104;50.732;10.174;2023-04-15T10:32:13;7.03;;;6.33;;
19883;SDS011;10104;50.732;10.174;2023-04-15T10:34:36;7.50;;;6.20;;
19883;SDS011;10104;50.732;10.174;2023-04-15T10:37:00;6.77;;;6.07;;
19883;SDS011;10104;50.732;10.174;2023-04-15T10:42:07;8.07;;;6.63;;
19883;SDS011;10104;50.732;10.174;2023-04-15T10:44:34;7.70;;;6.50;;
19883;SDS011;10104;50.732;10.174;2023-04-15T10:46:59;7.20;;;6.50;;
19883;SDS011;10104;50.732;10.174;2023-04-15T10:49:24;12.27;;;9.80;;
19883;SDS011;10104;50.732;10.174;2023-04-15T10:51:50;15.73;;;11.77;;
19883;SDS011;10104;50.732;10.174;2023-04-15T10:54:13;7.37;;;6.67;;
19883;SDS011;10104;50.732;10.174;2023-04-15T10:56:52;7.87;;;6.60;;
19883;SDS011;10104;50.732;10.174;2023-04-15T10:59:31;6.63;;;5.80;;
19883;SDS011;10104;50.732;10.174;2023-04-15T11:02:00;8.43;;;6.83;;
19883;SDS011;10104;50.732;10.174;2023-04-15T11:07:13;7.43;;;5.87;;
19883;SDS011;10104;50.732;10.174;2023-04-15T11:09:35;6.73;;;5.77;;
19883;SDS011;10104;50.732;10.174;2023-04-15T11:14:29;5.67;;;4.70;;
19883;SDS011;10104;50.732;10.174;2023-04-15T11:16:50;5.97;;;5.00;;
19883;SDS011;10104;50.732;10.174;2023-04-15T11:19:12;6.10;;;4.40;;
19883;SDS011;10104;50.732;10.174;2023-04-15T11:21:33;5.30;;;4.80;;
19883;SDS011;10104;50.732;10.174;2023-04-15T11:23:55;4.20;;;3.80;;
19883;SDS011;10104;50.732;10.174;2023-04-15T11:26:17;4.20;;;3.77;;
19883;SDS011;10104;50.732;10.174;2023-04-15T11:28:40;5.20;;;3.97;;
19883;SDS011;10104;50.732;10.174;2023-04-15T11:31:10;5.20;;;4.17;;
19883;SDS011;10104;50.732;10.174;2023-04-15T11:33:37;4.30;;;3.90;;
19883;SDS011;10104;50.732;10.174;2023-04-15T11:36:05;6.50;;;4.13;;
19883;SDS011;10104;50.732;10.174;2023-04-15T11:38:27;5.93;;;5.30;;
19883;SDS011;10104;50.732;10.174;2023-04-15T11:40:49;4.23;;;3.53;;
19883;SDS011;10104;50.732;10.174;2023-04-15T11:43:12;4.10;;;3.60;;
19883;SDS011;10104;50.732;10.174;2023-04-15T11:45:47;3.53;;;3.23;;
19883;SDS011;10104;50.732;10.174;2023-04-15T11:48:11;3.77;;;3.23;;
19883;SDS011;10104;50.732;10.174;2023-04-15T11:50:34;4.17;;;3.17;;
19883;SDS011;10104;50.732;10.174;2023-04-15T11:52:57;3.10;;;2.70;;
19883;SDS011;10104;50.732;10.174;2023-04-15T11:55:24;3.23;;;2.90;;
19883;SDS011;10104;50.732;10.174;2023-04-15T11:57:46;2.10;;;1.87;;
19883;SDS011;10104;50.732;10.174;2023-04-15T12:00:07;3.30;;;2.90;;
19883;SDS011;10104;50.732;10.174;2023-04-15T12:02:30;2.50;;;2.00;;
19883;SDS011;10104;50.732;10.174;2023-04-15T12:05:01;2.10;;;1.90;;
19883;SDS011;10104;50.732;10.174;2023-04-15T12:07:24;2.30;;;2.10;;
19883;SDS011;10104;50.732;10.174;2023-04-15T12:09:53;2.23;;;1.60;;
19883;SDS011;10104;50.732;10.174;2023-04-15T12:12:15;1.50;;;1.40;;
19883;SDS011;10104;50.732;10.174;2023-04-15T12:14:39;1.40;;;1.30;;
19883;SDS011;10104;50.732;10.174;2023-04-15T12:17:03;2.07;;;1.63;;
19883;SDS011;10104;50.732;10.174;2023-04-15T12:19:26;1.27;;;1.17;;
19883;SDS011;10104;50.732;10.174;2023-04-15T12:21:49;3.67;;;2.53;;
19883;SDS011;10104;50.732;10.174;2023-04-15T12:24:13;2.00;;;1.80;;
19883;SDS011;10104;50.732;10.174;2023-04-15T12:26:42;1.40;;;1.30;;
19883;SDS011;10104;50.732;10.174;2023-04-15T12:29:06;1.60;;;1.50;;
19883;SDS011;10104;50.732;10.174;2023-04-15T12:31:29;1.90;;;1.67;;
19883;SDS011;10104;50.732;10.174;2023-04-15T12:33:50;1.80;;;1.70;;
19883;SDS011;10104;50.732;10.174;2023-04-15T12:36:15;2.00;;;1.50;;
19883;SDS011;10104;50.732;10.174;2023-04-15T12:38:36;1.77;;;1.50;;
19883;SDS011;10104;50.732;10.174;2023-04-15T12:40:58;1.80;;;1.70;;
19883;SDS011;10104;50.732;10.174;2023-04-15T12:43:19;1.53;;;1.13;;
19883;SDS011;10104;50.732;10.174;2023-04-15T12:45:41;1.93;;;1.70;;
19883;SDS011;10104;50.732;10.174;2023-04-15T12:48:03;1.50;;;1.40;;
19883;SDS011;10104;50.732;10.174;2023-04-15T12:50:25;1.40;;;1.07;;
19883;SDS011;10104;50.732;10.174;2023-04-15T12:52:46;1.00;;;0.90;;
19883;SDS011;10104;50.732;10.174;2023-04-15T12:55:08;2.00;;;1.80;;
19883;SDS011;10104;50.732;10.174;2023-04-15T12:57:30;1.20;;;1.10;;
19883;SDS011;10104;50.732;10.174;2023-04-15T12:59:52;1.33;;;1.20;;
19883;SDS011;10104;50.732;10.174;2023-04-15T13:02:13;1.30;;;1.20;;
19883;SDS011;10104;50.732;10.174;2023-04-15T13:04:36;1.50;;;1.27;;
19883;SDS011;10104;50.732;10.174;2023-04-15T13:06:57;1.27;;;1.00;;
19883;SDS011;10104;50.732;10.174;2023-04-15T13:09:19;1.50;;;1.40;;
19883;SDS011;10104;50.732;10.174;2023-04-15T13:11:40;1.47;;;1.30;;
19883;SDS011;10104;50.732;10.174;2023-04-15T13:14:06;2.10;;;1.30;;
19883;SDS011;10104;50.732;10.174;2023-04-15T13:16:29;1.77;;;1.17;;
19883;SDS011;10104;50.732;10.174;2023-04-15T13:18:52;3.60;;;2.17;;
19883;SDS011;10104;50.732;10.174;2023-04-15T13:21:13;1.27;;;1.17;;
19883;SDS011;10104;50.732;10.174;2023-04-15T13:23:35;1.40;;;1.20;;
19883;SDS011;10104;50.732;10.174;2023-04-15T13:25:57;2.00;;;1.27;;
19883;SDS011;10104;50.732;10.174;2023-04-15T13:28:18;1.93;;;1.43;;
19883;SDS011;10104;50.732;10.174;2023-04-15T13:30:40;2.23;;;1.90;;
19883;SDS011;10104;50.732;10.174;2023-04-15T13:33:01;2.90;;;2.43;;
19883;SDS011;10104;50.732;10.174;2023-04-15T13:35:23;1.60;;;1.50;;
19883;SDS011;10104;50.732;10.174;2023-04-15T13:37:44;4.57;;;3.73;;
19883;SDS011;10104;50.732;10.174;2023-04-15T13:40:06;5.87;;;5.27;;
19883;SDS011;10104;50.732;10.174;2023-04-15T13:42:28;3.37;;;2.03;;
19883;SDS011;10104;50.732;10.174;2023-04-15T13:44:49;1.90;;;1.43;;
19883;SDS011;10104;50.732;10.174;2023-04-15T13:47:14;3.00;;;2.40;;
19883;SDS011;10104;50.732;10.174;2023-04-15T13:49:36;2.20;;;2.00;;
19883;SDS011;10104;50.732;10.174;2023-04-15T13:51:57;1.93;;;1.70;;
19883;SDS011;10104;50.732;10.174;2023-04-15T13:54:19;2.10;;;1.90;;
19883;SDS011;10104;50.732;10.174;2023-04-15T13:56:41;5.13;;;4.43;;
19883;SDS011;10104;50.732;10.174;2023-04-15T13:59:02;7.23;;;3.50;;
19883;SDS011;10104;50.732;10.174;2023-04-15T14:01:24;7.73;;;6.93;;
19883;SDS011;10104;50.732;10.174;2023-04-15T14:03:46;2.60;;;2.30;;
19883;SDS011;10104;50.732;10.174;2023-04-15T14:06:07;3.83;;;3.40;;